createdAt,value
2018-05-24T00:00:14.754Z,18.29
2018-05-24T00:02:42.169Z,18.28
2018-05-24T00:05:09.586Z,18.27
2018-05-24T00:07:37.004Z,18.27
2018-05-24T00:10:04.424Z,18.28
2018-05-24T00:12:31.850Z,18.29
2018-05-24T00:14:59.261Z,18.31
2018-05-24T00:17:26.679Z,18.32
2018-05-24T00:19:54.108Z,18.34
2018-05-24T00:22:21.568Z,18.36
2018-05-24T00:24:49.315Z,18.38
2018-05-24T00:27:16.736Z,18.40
2018-05-24T00:29:44.144Z,18.42
2018-05-24T00:32:11.984Z,18.44
2018-05-24T00:34:39.411Z,18.44
2018-05-24T00:37:06.823Z,18.45
2018-05-24T00:39:34.263Z,18.45
2018-05-24T00:42:01.657Z,18.44
2018-05-24T00:44:29.067Z,18.45
2018-05-24T00:46:56.505Z,18.47
2018-05-24T00:49:23.907Z,18.49
2018-05-24T00:51:51.328Z,18.52
2018-05-24T00:54:18.794Z,18.52
2018-05-24T00:56:46.233Z,18.53
2018-05-24T00:59:13.656Z,18.54
2018-05-24T01:01:41.094Z,18.53
2018-05-24T01:04:08.589Z,18.55
2018-05-24T01:06:35.946Z,18.54
2018-05-24T01:09:03.354Z,18.48
2018-05-24T01:11:30.767Z,18.51
2018-05-24T01:13:58.187Z,18.51
2018-05-24T01:16:25.607Z,18.51
2018-05-24T01:18:53.027Z,18.50
2018-05-24T01:21:20.452Z,18.45
2018-05-24T01:23:47.913Z,18.43
2018-05-24T01:26:15.324Z,18.36
2018-05-24T01:28:42.744Z,18.36
2018-05-24T01:31:10.157Z,18.31
2018-05-24T01:33:37.573Z,18.31
2018-05-24T01:36:04.976Z,18.29
2018-05-24T01:38:32.394Z,18.26
2018-05-24T01:40:59.841Z,18.24
2018-05-24T01:43:27.295Z,18.22
2018-05-24T01:45:54.728Z,18.21
2018-05-24T01:48:22.147Z,18.14
2018-05-24T01:50:49.897Z,18.11
2018-05-24T01:53:17.297Z,18.02
2018-05-24T01:55:44.717Z,18.05
2018-05-24T01:58:12.156Z,18.05
2018-05-24T02:00:39.594Z,18.02
2018-05-24T02:03:06.997Z,17.98
2018-05-24T02:05:34.399Z,17.96
2018-05-24T02:08:01.831Z,17.98
2018-05-24T02:10:29.258Z,17.94
2018-05-24T02:12:56.852Z,17.78
2018-05-24T02:15:24.264Z,17.82
2018-05-24T02:17:51.694Z,17.79
2018-05-24T02:20:19.138Z,17.81
2018-05-24T02:22:46.549Z,17.81
2018-05-24T02:25:13.965Z,17.80
2018-05-24T02:27:41.388Z,17.80
2018-05-24T02:30:08.792Z,17.74
2018-05-24T02:32:36.358Z,17.76
2018-05-24T02:35:03.768Z,17.73
2018-05-24T02:37:31.176Z,17.71
2018-05-24T02:39:58.612Z,17.67
2018-05-24T02:42:26.055Z,17.66
2018-05-24T02:44:53.462Z,17.65
2018-05-24T02:47:20.905Z,17.64
2018-05-24T02:49:48.686Z,17.57
2018-05-24T02:52:16.117Z,17.53
2018-05-24T02:54:43.554Z,17.53
2018-05-24T02:57:10.983Z,17.54
2018-05-24T02:59:38.399Z,17.52
2018-05-24T03:02:05.825Z,17.50
2018-05-24T03:04:33.236Z,17.44
2018-05-24T03:07:00.637Z,17.44
2018-05-24T03:09:28.065Z,17.43
2018-05-24T03:11:55.470Z,17.45
2018-05-24T03:14:22.984Z,17.44
2018-05-24T03:16:50.294Z,17.42
2018-05-24T03:19:17.687Z,17.44
2018-05-24T03:21:45.093Z,17.46
2018-05-24T03:24:12.802Z,17.45
2018-05-24T03:26:40.205Z,17.47
2018-05-24T03:29:07.627Z,17.48
2018-05-24T03:31:35.036Z,17.50
2018-05-24T03:34:02.447Z,17.53
2018-05-24T03:36:29.856Z,17.52
2018-05-24T03:38:57.272Z,17.53
2018-05-24T03:41:24.675Z,17.57
2018-05-24T03:43:52.495Z,17.57
2018-05-24T03:46:19.906Z,17.55
2018-05-24T03:48:47.324Z,17.58
2018-05-24T03:51:14.751Z,17.61
2018-05-24T03:53:42.160Z,17.61
2018-05-24T03:56:09.643Z,17.65
2018-05-24T03:58:37.076Z,17.68
2018-05-24T04:01:17.471Z,17.67
2018-05-24T04:03:48.483Z,17.67
2018-05-24T04:06:15.888Z,17.65
2018-05-24T04:08:43.303Z,17.65
2018-05-24T04:11:10.712Z,17.62
2018-05-24T04:13:38.133Z,17.63
2018-05-24T04:16:05.540Z,17.63
2018-05-24T04:18:32.952Z,17.69
2018-05-24T04:21:00.369Z,17.68
2018-05-24T04:23:27.764Z,17.73
2018-05-24T04:25:55.397Z,17.84
2018-05-24T04:28:22.795Z,18.00
2018-05-24T04:30:50.203Z,18.20
2018-05-24T04:33:17.696Z,18.49
2018-05-24T04:35:45.108Z,18.70
2018-05-24T04:38:12.512Z,19.11
2018-05-24T04:40:39.940Z,19.72
2018-05-24T04:43:07.341Z,20.15
2018-05-24T04:45:34.812Z,20.46
2018-05-24T04:48:02.164Z,20.75
2018-05-24T04:50:29.581Z,21.08
2018-05-24T04:52:56.987Z,21.42
2018-05-24T04:55:24.384Z,21.79
2018-05-24T04:57:52.057Z,22.00
2018-05-24T05:00:19.453Z,22.09
2018-05-24T05:02:46.859Z,22.11
2018-05-24T05:05:14.275Z,22.15
2018-05-24T05:07:41.681Z,22.16
2018-05-24T05:10:09.416Z,22.28
2018-05-24T05:12:36.821Z,22.20
2018-05-24T05:15:04.225Z,22.21
2018-05-24T05:17:31.644Z,22.28
2018-05-24T05:19:59.120Z,22.47
2018-05-24T05:22:26.532Z,22.70
2018-05-24T05:24:54.258Z,23.03
2018-05-24T05:27:21.694Z,23.44
2018-05-24T05:29:49.088Z,23.69
2018-05-24T05:32:16.528Z,24.05
2018-05-24T05:34:45.362Z,24.54
2018-05-24T05:37:12.769Z,24.86
2018-05-24T05:39:40.189Z,25.10
2018-05-24T05:42:07.612Z,25.40
2018-05-24T05:44:35.020Z,25.39
2018-05-24T05:47:02.586Z,25.27
2018-05-24T05:49:29.996Z,25.26
2018-05-24T05:51:57.448Z,25.50
2018-05-24T05:54:24.864Z,25.65
2018-05-24T05:56:52.275Z,25.63
2018-05-24T05:59:19.739Z,26.05
2018-05-24T06:01:47.242Z,26.18
2018-05-24T06:04:14.604Z,26.51
2018-05-24T06:06:42.028Z,26.63
2018-05-24T06:09:09.429Z,26.65
2018-05-24T06:11:36.835Z,26.66
2018-05-24T06:14:04.256Z,26.87
2018-05-24T06:16:31.691Z,26.85
2018-05-24T06:18:59.089Z,26.83
2018-05-24T06:21:26.565Z,26.97
2018-05-24T06:23:53.979Z,27.10
2018-05-24T06:26:21.395Z,27.16
2018-05-24T06:28:48.789Z,27.27
2018-05-24T06:31:16.357Z,27.50
2018-05-24T06:33:43.763Z,27.84
2018-05-24T06:36:11.173Z,28.12
2018-05-24T06:38:38.591Z,27.87
2018-05-24T06:41:06.004Z,28.05
2018-05-24T06:43:33.425Z,28.16
2018-05-24T06:46:00.843Z,28.36
2018-05-24T06:48:28.269Z,28.16
2018-05-24T06:50:55.691Z,27.84
2018-05-24T06:53:23.258Z,27.51
2018-05-24T06:55:50.660Z,27.14
2018-05-24T06:58:18.066Z,26.88
2018-05-24T07:00:46.382Z,26.74
2018-05-24T07:03:13.797Z,26.60
2018-05-24T07:05:41.199Z,26.72
2018-05-24T07:08:08.762Z,27.07
2018-05-24T07:10:36.166Z,26.92
2018-05-24T07:13:03.561Z,26.84
2018-05-24T07:15:31.217Z,27.14
2018-05-24T07:17:58.648Z,27.25
2018-05-24T07:20:26.046Z,27.51
2018-05-24T07:22:53.464Z,27.36
2018-05-24T07:25:20.876Z,27.55
2018-05-24T07:27:48.305Z,26.92
2018-05-24T07:30:15.731Z,27.01
2018-05-24T07:32:43.129Z,26.99
2018-05-24T07:35:10.968Z,26.89
2018-05-24T07:37:38.411Z,26.61
2018-05-24T07:40:05.780Z,26.60
2018-05-24T07:42:33.367Z,26.40
2018-05-24T07:45:00.750Z,26.25
2018-05-24T07:47:28.162Z,26.27
2018-05-24T07:49:55.596Z,26.20
2018-05-24T07:52:23.031Z,25.81
2018-05-24T07:54:50.517Z,25.81
2018-05-24T07:57:17.863Z,25.55
2018-05-24T07:59:45.281Z,25.36
2018-05-24T08:02:12.696Z,25.17
2018-05-24T08:04:40.124Z,24.96
2018-05-24T08:07:07.537Z,25.12
2018-05-24T08:09:35.225Z,25.64
2018-05-24T08:12:02.636Z,25.96
2018-05-24T08:14:30.051Z,25.65
2018-05-24T08:16:57.796Z,25.56
2018-05-24T08:19:25.199Z,25.39
2018-05-24T08:21:52.615Z,24.99
2018-05-24T08:24:20.050Z,24.88
2018-05-24T08:26:47.469Z,24.83
2018-05-24T08:29:14.876Z,24.50
2018-05-24T08:31:42.284Z,24.26
2018-05-24T08:34:09.865Z,24.14
2018-05-24T08:36:37.289Z,24.09
2018-05-24T08:39:05.632Z,24.14
2018-05-24T08:41:33.361Z,24.19
2018-05-24T08:44:00.773Z,24.45
2018-05-24T08:46:28.184Z,24.71
2018-05-24T08:48:55.632Z,24.83
2018-05-24T08:51:23.464Z,25.00
2018-05-24T08:53:51.236Z,25.20
2018-05-24T08:56:18.648Z,25.43
2018-05-24T08:58:46.062Z,25.49
2018-05-24T09:01:13.540Z,25.58
2018-05-24T09:03:40.896Z,25.41
2018-05-24T09:06:08.352Z,25.19
2018-05-24T09:08:35.759Z,25.06
2018-05-24T09:11:03.329Z,24.75
2018-05-24T09:13:30.750Z,24.22
2018-05-24T09:15:58.169Z,24.17
2018-05-24T09:18:25.603Z,24.23
2018-05-24T09:20:53.000Z,23.98
2018-05-24T09:23:20.408Z,23.98
2018-05-24T09:25:47.842Z,23.84
2018-05-24T09:28:15.252Z,23.82
2018-05-24T09:30:42.669Z,23.82
2018-05-24T09:33:10.089Z,23.79
2018-05-24T09:35:37.504Z,23.91
2018-05-24T09:38:04.942Z,23.88
2018-05-24T09:40:32.541Z,23.61
2018-05-24T09:42:59.957Z,23.54
2018-05-24T09:45:27.372Z,23.50
2018-05-24T09:47:54.788Z,23.58
2018-05-24T09:50:22.196Z,23.44
2018-05-24T09:52:49.664Z,23.43
2018-05-24T09:55:17.126Z,23.54
2018-05-24T09:57:44.493Z,24.02
2018-05-24T10:00:11.960Z,24.24
2018-05-24T10:02:39.363Z,24.30
2018-05-24T10:05:06.783Z,24.36
2018-05-24T10:07:34.200Z,24.30
2018-05-24T10:10:01.648Z,24.42
2018-05-24T10:12:29.024Z,24.40
2018-05-24T10:14:56.591Z,24.27
2018-05-24T10:17:23.999Z,24.42
2018-05-24T10:19:51.403Z,24.41
2018-05-24T10:24:51.565Z,24.18
2018-05-24T10:27:19.033Z,23.90
2018-05-24T10:29:46.452Z,23.85
2018-05-24T10:32:13.889Z,23.84
2018-05-24T10:34:41.361Z,23.72
2018-05-24T10:37:08.780Z,23.62
2018-05-24T10:39:36.236Z,23.59
2018-05-24T10:42:03.677Z,23.55
2018-05-24T10:44:31.090Z,23.55
2018-05-24T10:46:58.504Z,23.51
2018-05-24T10:49:25.941Z,23.66
2018-05-24T10:51:53.398Z,23.70
2018-05-24T10:54:20.837Z,23.75
2018-05-24T10:56:48.312Z,23.75
2018-05-24T10:59:15.676Z,23.60
2018-05-24T11:01:43.256Z,23.61
2018-05-24T11:04:10.676Z,23.57
2018-05-24T11:06:38.090Z,23.47
2018-05-24T11:09:05.496Z,23.28
2018-05-24T11:11:33.456Z,23.14
2018-05-24T11:14:00.853Z,23.08
2018-05-24T11:16:28.272Z,22.96
2018-05-24T11:18:55.714Z,22.96
2018-05-24T11:21:23.147Z,22.79
2018-05-24T11:23:50.575Z,22.67
2018-05-24T11:26:17.977Z,22.61
2018-05-24T11:28:45.408Z,22.41
2018-05-24T11:31:12.841Z,22.41
2018-05-24T11:33:40.281Z,22.31
2018-05-24T11:36:07.696Z,22.31
2018-05-24T11:38:35.116Z,22.29
2018-05-24T11:41:02.529Z,22.28
2018-05-24T11:43:30.120Z,22.24
2018-05-24T11:45:57.410Z,22.15
2018-05-24T11:48:24.832Z,22.07
2018-05-24T11:50:52.307Z,21.99
2018-05-24T11:53:19.739Z,21.92
2018-05-24T11:55:47.140Z,21.83
2018-05-24T11:58:18.813Z,21.71
2018-05-24T12:00:46.273Z,21.62
2018-05-24T12:03:13.881Z,21.41
2018-05-24T12:05:41.292Z,21.31
2018-05-24T12:08:08.717Z,21.20
2018-05-24T12:10:36.148Z,21.14
2018-05-24T12:13:03.568Z,21.06
2018-05-24T12:15:30.992Z,21.01
2018-05-24T12:17:58.865Z,20.95
2018-05-24T12:20:26.285Z,20.98
2018-05-24T12:22:53.723Z,20.92
2018-05-24T12:25:21.210Z,20.86
2018-05-24T12:27:48.643Z,20.76
2018-05-24T12:30:16.091Z,20.82
2018-05-24T12:32:43.698Z,20.82
2018-05-24T12:35:11.166Z,20.84
2018-05-24T12:37:39.336Z,20.82
2018-05-24T12:40:06.776Z,20.75
2018-05-24T12:42:34.196Z,20.73
2018-05-24T12:45:01.619Z,20.61
2018-05-24T12:47:29.067Z,20.45
2018-05-24T12:49:56.529Z,20.34
2018-05-24T12:52:24.040Z,20.31
2018-05-24T12:54:51.500Z,20.29
2018-05-24T12:57:18.960Z,20.31
2018-05-24T12:59:46.427Z,20.29
2018-05-24T13:02:13.878Z,20.28
2018-05-24T13:04:41.288Z,20.27
2018-05-24T13:07:08.739Z,20.22
2018-05-24T13:09:36.159Z,20.13
2018-05-24T13:12:03.593Z,20.04
2018-05-24T13:14:31.013Z,19.80
2018-05-24T13:16:58.535Z,19.68
2018-05-24T13:19:25.980Z,19.65
2018-05-24T13:21:53.407Z,19.55
2018-05-24T13:24:21.230Z,19.35
2018-05-24T13:26:48.708Z,19.13
2018-05-24T13:29:16.129Z,19.02
2018-05-24T13:31:43.571Z,18.84
2018-05-24T13:34:10.987Z,18.74
2018-05-24T13:36:38.433Z,18.69
2018-05-24T13:39:05.887Z,18.65
2018-05-24T13:41:33.296Z,18.60
2018-05-24T13:44:00.729Z,18.56
2018-05-24T13:46:28.172Z,18.53
2018-05-24T13:48:55.904Z,18.51
2018-05-24T13:51:23.416Z,18.48
2018-05-24T13:53:50.843Z,18.48
2018-05-24T13:56:18.268Z,18.51
2018-05-24T13:58:45.699Z,18.57
2018-05-24T14:01:13.146Z,18.65
2018-05-24T14:03:40.561Z,18.74
2018-05-24T14:06:07.985Z,18.81
2018-05-24T14:08:35.588Z,18.75
2018-05-24T14:11:03.013Z,18.95
2018-05-24T14:13:30.437Z,19.04
2018-05-24T14:15:58.300Z,19.08
2018-05-24T14:18:25.729Z,19.16
2018-05-24T14:20:53.229Z,19.12
2018-05-24T14:23:20.951Z,19.10
2018-05-24T14:25:48.384Z,19.12
2018-05-24T14:28:15.814Z,19.10
2018-05-24T14:30:43.255Z,19.07
2018-05-24T14:33:10.681Z,19.07
2018-05-24T14:35:38.107Z,19.05
2018-05-24T14:38:05.523Z,19.03
2018-05-24T14:40:32.943Z,19.00
2018-05-24T14:43:00.361Z,18.88
2018-05-24T14:45:27.857Z,18.80
2018-05-24T14:47:57.055Z,18.72
2018-05-24T14:50:24.483Z,18.68
2018-05-24T14:52:51.920Z,18.63
2018-05-24T14:55:19.325Z,18.57
2018-05-24T14:57:46.748Z,18.54
2018-05-24T15:00:14.169Z,18.52
2018-05-24T15:02:41.612Z,18.52
2018-05-24T15:05:09.040Z,18.51
2018-05-24T15:07:36.470Z,18.50
2018-05-24T15:10:03.900Z,18.48
2018-05-24T15:12:31.316Z,18.50
2018-05-24T15:14:59.012Z,18.51
2018-05-24T15:17:27.252Z,18.49
2018-05-24T15:19:54.701Z,18.49
2018-05-24T15:22:22.227Z,18.50
2018-05-24T15:24:49.699Z,18.61
2018-05-24T15:27:17.375Z,18.71
2018-05-24T15:29:44.901Z,18.82
2018-05-24T15:32:12.320Z,18.93
2018-05-24T15:34:39.757Z,19.01
2018-05-24T15:37:07.188Z,19.08
2018-05-24T15:39:34.605Z,19.08
2018-05-24T15:42:02.046Z,19.13
2018-05-24T15:44:29.683Z,19.23
2018-05-24T15:46:57.126Z,19.32
2018-05-24T15:49:24.560Z,19.44
2018-05-24T15:51:52.030Z,19.59
2018-05-24T15:54:19.481Z,19.75
2018-05-24T15:56:46.929Z,19.83
2018-05-24T15:59:14.383Z,20.01
2018-05-24T16:01:42.002Z,20.15
2018-05-24T16:04:09.420Z,20.25
2018-05-24T16:06:36.844Z,20.35
2018-05-24T16:09:04.269Z,20.45
2018-05-24T16:11:31.699Z,20.60
2018-05-24T16:13:59.132Z,20.74
2018-05-24T16:16:26.548Z,20.79
2018-05-24T16:18:53.960Z,20.86
2018-05-24T16:21:21.392Z,20.93
2018-05-24T16:23:48.800Z,20.94
2018-05-24T16:26:16.254Z,20.99
2018-05-24T16:28:43.667Z,21.03
2018-05-24T16:31:11.080Z,21.04
2018-05-24T16:33:38.507Z,21.06
2018-05-24T16:36:05.922Z,21.10
2018-05-24T16:38:33.339Z,21.12
2018-05-24T16:41:00.764Z,21.20
2018-05-24T16:43:28.189Z,21.28
2018-05-24T16:45:55.619Z,21.20
2018-05-24T16:48:23.054Z,21.19
2018-05-24T16:50:50.506Z,21.05
2018-05-24T16:53:18.001Z,20.96
2018-05-24T16:55:45.502Z,20.87
2018-05-24T16:58:13.546Z,20.79
2018-05-24T17:00:41.018Z,20.72
2018-05-24T17:03:08.667Z,20.69
2018-05-24T17:05:36.121Z,20.65
2018-05-24T17:08:03.628Z,20.62
2018-05-24T17:10:31.051Z,20.56
2018-05-24T17:12:58.494Z,20.53
2018-05-24T17:15:25.940Z,20.45
2018-05-24T17:17:53.352Z,20.41
2018-05-24T17:20:20.785Z,20.40
2018-05-24T17:22:48.220Z,20.35
2018-05-24T17:25:15.635Z,20.29
2018-05-24T17:27:43.073Z,20.26
2018-05-24T17:30:10.768Z,20.23
2018-05-24T17:32:38.356Z,20.20
2018-05-24T17:35:05.819Z,20.19
2018-05-24T17:37:33.227Z,20.17
2018-05-24T17:40:00.740Z,20.15
2018-05-24T17:42:28.152Z,20.17
2018-05-24T17:44:55.891Z,20.15
2018-05-24T17:47:23.333Z,20.13
2018-05-24T17:49:50.749Z,20.12
2018-05-24T17:52:18.204Z,20.12
2018-05-24T17:54:45.627Z,20.11
2018-05-24T17:57:13.055Z,20.12
2018-05-24T17:59:40.497Z,20.13
2018-05-24T18:02:07.908Z,20.11
2018-05-24T18:04:35.776Z,20.10
2018-05-24T18:07:03.195Z,20.07
2018-05-24T18:09:30.657Z,20.01
2018-05-24T18:11:58.056Z,20.00
2018-05-24T18:14:25.513Z,19.99
2018-05-24T18:16:52.961Z,19.96
2018-05-24T18:19:20.443Z,19.95
2018-05-24T18:21:47.892Z,19.94
2018-05-24T18:24:15.336Z,19.92
2018-05-24T18:26:42.768Z,19.91
2018-05-24T18:29:10.208Z,19.89
2018-05-24T18:31:37.676Z,19.87
2018-05-24T18:34:05.149Z,19.87
2018-05-24T18:36:32.651Z,19.87
2018-05-24T18:39:00.078Z,19.88
2018-05-24T18:41:29.228Z,19.88
2018-05-24T18:43:56.690Z,19.88
2018-05-24T18:46:24.132Z,19.89
2018-05-24T18:48:51.641Z,19.90
2018-05-24T18:51:19.208Z,19.91
2018-05-24T18:53:46.617Z,19.92
2018-05-24T18:56:14.261Z,19.93
2018-05-24T18:58:42.840Z,19.93
2018-05-24T19:01:10.254Z,19.93
2018-05-24T19:03:37.683Z,19.94
2018-05-24T19:06:05.261Z,19.96
2018-05-24T19:08:32.696Z,19.93
2018-05-24T19:11:00.189Z,19.95
2018-05-24T19:13:27.678Z,19.94
2018-05-24T19:15:55.133Z,19.93
2018-05-24T19:18:22.702Z,19.92
2018-05-24T19:20:50.201Z,19.89
2018-05-24T19:23:17.585Z,19.87
2018-05-24T19:25:44.987Z,19.80
2018-05-24T19:28:12.407Z,19.76
2018-05-24T19:30:40.107Z,19.73
2018-05-24T19:33:07.967Z,19.72
2018-05-24T19:35:35.427Z,19.73
2018-05-24T19:38:03.016Z,19.75
2018-05-24T19:40:30.435Z,19.78
2018-05-24T19:42:57.874Z,19.76
2018-05-24T19:45:25.364Z,19.76
2018-05-24T19:47:52.826Z,19.75
2018-05-24T19:50:20.520Z,19.74
2018-05-24T19:52:47.924Z,19.72
2018-05-24T19:55:15.361Z,19.68
2018-05-24T19:57:42.860Z,19.63
2018-05-24T20:00:10.294Z,19.60
2018-05-24T20:02:37.734Z,19.59
2018-05-24T20:05:05.145Z,19.57
2018-05-24T20:07:32.571Z,19.56
2018-05-24T20:09:59.988Z,19.55
2018-05-24T20:12:27.460Z,19.55
2018-05-24T20:14:55.249Z,19.53
2018-05-24T20:17:22.670Z,19.49
2018-05-24T20:19:50.396Z,19.46
2018-05-24T20:22:17.808Z,19.45
2018-05-24T20:24:45.945Z,19.43
2018-05-24T20:27:13.525Z,19.41
2018-05-24T20:29:41.813Z,19.41
2018-05-24T20:32:11.053Z,19.38
2018-05-24T20:34:38.685Z,19.35
2018-05-24T20:37:10.516Z,19.30
2018-05-24T20:39:38.680Z,19.21
2018-05-24T20:42:06.702Z,19.15
2018-05-24T20:44:34.489Z,19.09
2018-05-24T20:47:02.382Z,19.06
2018-05-24T20:49:29.907Z,18.98
2018-05-24T20:51:57.372Z,18.92
2018-05-24T20:54:24.847Z,18.81
2018-05-24T20:56:52.342Z,18.75
2018-05-24T20:59:19.770Z,18.65
2018-05-24T21:01:47.232Z,18.58
2018-05-24T21:04:14.723Z,18.52
2018-05-24T21:06:42.137Z,18.49
2018-05-24T21:09:09.561Z,18.47
2018-05-24T21:11:36.997Z,18.49
2018-05-24T21:14:04.411Z,18.45
2018-05-24T21:16:31.820Z,18.41
2018-05-24T21:18:59.400Z,18.37
2018-05-24T21:21:26.815Z,18.32
2018-05-24T21:23:54.243Z,18.29
2018-05-24T21:26:21.788Z,18.28
2018-05-24T21:28:49.208Z,18.26
2018-05-24T21:31:16.623Z,18.23
2018-05-24T21:33:44.057Z,18.21
2018-05-24T21:36:11.492Z,18.22
2018-05-24T21:38:38.911Z,18.22
2018-05-24T21:41:06.320Z,18.25
2018-05-24T21:43:33.743Z,18.24
2018-05-24T21:46:01.173Z,18.25
2018-05-24T21:48:28.635Z,18.24
2018-05-24T21:50:56.210Z,18.22
2018-05-24T21:53:23.636Z,18.22
2018-05-24T21:55:51.077Z,18.22
2018-05-24T21:58:18.518Z,18.22
2018-05-24T22:00:50.864Z,18.21
2018-05-24T22:03:18.561Z,18.22
2018-05-24T22:05:45.976Z,18.20
2018-05-24T22:08:14.356Z,18.20
2018-05-24T22:10:42.270Z,18.18
2018-05-24T22:13:09.970Z,18.15
2018-05-24T22:15:37.767Z,18.17
2018-05-24T22:18:05.759Z,18.21
2018-05-24T22:20:34.038Z,18.20
2018-05-24T22:23:01.675Z,18.19
2018-05-24T22:25:29.362Z,18.18
2018-05-24T22:27:57.030Z,18.20
2018-05-24T22:30:26.151Z,18.19
2018-05-24T22:32:53.855Z,18.18
2018-05-24T22:35:21.663Z,18.18
2018-05-24T22:37:49.108Z,18.17
2018-05-24T22:40:16.571Z,18.17
2018-05-24T22:42:43.989Z,18.16
2018-05-24T22:45:11.402Z,18.17
2018-05-24T22:47:38.817Z,18.16
2018-05-24T22:50:06.529Z,18.18
2018-05-24T22:52:34.066Z,18.22
2018-05-24T22:55:01.474Z,18.24
2018-05-24T22:57:28.920Z,18.26
2018-05-24T22:59:56.353Z,18.30
2018-05-24T23:02:23.829Z,18.33
2018-05-24T23:04:51.308Z,18.34
2018-05-24T23:07:18.759Z,18.33
2018-05-24T23:09:47.251Z,18.33
2018-05-24T23:12:14.712Z,18.34
2018-05-24T23:14:42.135Z,18.37
2018-05-24T23:17:09.662Z,18.37
2018-05-24T23:19:37.092Z,18.33
2018-05-24T23:22:04.504Z,18.34
2018-05-24T23:24:32.068Z,18.35
2018-05-24T23:26:59.490Z,18.36
2018-05-24T23:29:26.908Z,18.38
2018-05-24T23:31:54.367Z,18.39
2018-05-24T23:34:21.811Z,18.41
2018-05-24T23:36:49.308Z,18.42
2018-05-24T23:39:16.734Z,18.39
2018-05-24T23:41:44.193Z,18.37
2018-05-24T23:44:11.605Z,18.38
2018-05-24T23:46:39.047Z,18.39
2018-05-24T23:49:06.456Z,18.40
2018-05-24T23:51:34.039Z,18.40
2018-05-24T23:54:01.451Z,18.42
2018-05-24T23:56:28.877Z,18.43
2018-05-24T23:58:56.357Z,18.45
